sensor_id;sensor_type;location;lat;lon;timestamp;temperature;humidity
38860;DHT22;24609;48.316;16.174;2022-12-18T00:01:57;-1.60;99.90
38860;DHT22;24609;48.316;16.174;2022-12-18T00:04:25;-1.60;99.90
38860;DHT22;24609;48.316;16.174;2022-12-18T00:06:51;-1.60;99.90
38860;DHT22;24609;48.316;16.174;2022-12-18T00:09:16;-1.60;1.00
38860;DHT22;24609;48.316;16.174;2022-12-18T00:11:42;-1.60;1.00
38860;DHT22;24609;48.316;16.174;2022-12-18T00:14:10;-1.60;1.00
38860;DHT22;24609;48.316;16.174;2022-12-18T00:16:37;-1.50;1.00
38860;DHT22;24609;48.316;16.174;2022-12-18T00:19:03;-1.60;99.90
38860;DHT22;24609;48.316;16.174;2022-12-18T00:21:30;-1.60;99.90
38860;DHT22;24609;48.316;16.174;2022-12-18T00:23:57;-1.60;99.90
38860;DHT22;24609;48.316;16.174;2022-12-18T00:26:25;-1.60;99.90
38860;DHT22;24609;48.316;16.174;2022-12-18T00:28:52;-1.60;99.90
38860;DHT22;24609;48.316;16.174;2022-12-18T00:31:21;-1.60;99.90
38860;DHT22;24609;48.316;16.174;2022-12-18T00:33:47;-1.50;99.90
38860;DHT22;24609;48.316;16.174;2022-12-18T00:36:16;-1.50;99.90
38860;DHT22;24609;48.316;16.174;2022-12-18T00:38:43;-1.50;99.90
38860;DHT22;24609;48.316;16.174;2022-12-18T00:41:10;-1.50;99.90
38860;DHT22;24609;48.316;16.174;2022-12-18T00:43:37;-1.50;99.90
38860;DHT22;24609;48.316;16.174;2022-12-18T00:46:03;-1.50;99.90
38860;DHT22;24609;48.316;16.174;2022-12-18T00:48:28;-1.60;99.90
38860;DHT22;24609;48.316;16.174;2022-12-18T00:50:54;-1.50;99.90
38860;DHT22;24609;48.316;16.174;2022-12-18T00:53:20;-1.60;99.90
38860;DHT22;24609;48.316;16.174;2022-12-18T00:55:46;-1.60;99.90
38860;DHT22;24609;48.316;16.174;2022-12-18T00:58:13;-1.60;99.90
38860;DHT22;24609;48.316;16.174;2022-12-18T01:00:40;-1.60;99.90
38860;DHT22;24609;48.316;16.174;2022-12-18T01:03:06;-1.60;99.90
38860;DHT22;24609;48.316;16.174;2022-12-18T01:05:32;-1.70;99.90
38860;DHT22;24609;48.316;16.174;2022-12-18T01:07:58;-1.80;99.90
38860;DHT22;24609;48.316;16.174;2022-12-18T01:10:25;-1.90;1.00
38860;DHT22;24609;48.316;16.174;2022-12-18T01:12:51;-2.00;99.90
38860;DHT22;24609;48.316;16.174;2022-12-18T01:15:17;-2.00;99.90
38860;DHT22;24609;48.316;16.174;2022-12-18T01:17:43;-2.10;99.90
38860;DHT22;24609;48.316;16.174;2022-12-18T01:20:10;-2.20;1.00
38860;DHT22;24609;48.316;16.174;2022-12-18T01:22:36;-2.30;1.00
38860;DHT22;24609;48.316;16.174;2022-12-18T01:25:03;-2.30;1.00
38860;DHT22;24609;48.316;16.174;2022-12-18T01:27:29;-2.30;1.00
38860;DHT22;24609;48.316;16.174;2022-12-18T01:29:55;-2.40;1.00
38860;DHT22;24609;48.316;16.174;2022-12-18T01:32:21;-2.50;1.00
38860;DHT22;24609;48.316;16.174;2022-12-18T01:34:47;-2.40;1.00
38860;DHT22;24609;48.316;16.174;2022-12-18T01:37:13;-2.50;1.00
38860;DHT22;24609;48.316;16.174;2022-12-18T01:39:38;-2.60;1.00
38860;DHT22;24609;48.316;16.174;2022-12-18T01:42:12;-2.60;21.40
38860;DHT22;24609;48.316;16.174;2022-12-18T01:47:33;-2.60;1.00
38860;DHT22;24609;48.316;16.174;2022-12-18T01:50:09;-2.80;1.00
38860;DHT22;24609;48.316;16.174;2022-12-18T01:52:36;-2.80;6.40
38860;DHT22;24609;48.316;16.174;2022-12-18T01:55:04;-2.90;35.70
38860;DHT22;24609;48.316;16.174;2022-12-18T01:57:30;-3.00;53.40
38860;DHT22;24609;48.316;16.174;2022-12-18T02:00:01;-3.20;99.90
38860;DHT22;24609;48.316;16.174;2022-12-18T02:02:28;-3.20;99.90
38860;DHT22;24609;48.316;16.174;2022-12-18T02:04:55;-3.30;99.90
38860;DHT22;24609;48.316;16.174;2022-12-18T02:10:27;-3.60;99.90
38860;DHT22;24609;48.316;16.174;2022-12-18T02:13:00;-3.70;99.90
38860;DHT22;24609;48.316;16.174;2022-12-18T02:15:39;-3.90;99.90
38860;DHT22;24609;48.316;16.174;2022-12-18T02:18:27;-4.00;99.90
38860;DHT22;24609;48.316;16.174;2022-12-18T02:29:00;-4.20;99.90
38860;DHT22;24609;48.316;16.174;2022-12-18T02:31:31;-4.30;99.90
38860;DHT22;24609;48.316;16.174;2022-12-18T02:34:02;-4.40;99.90
38860;DHT22;24609;48.316;16.174;2022-12-18T02:36:31;-4.40;99.90
38860;DHT22;24609;48.316;16.174;2022-12-18T02:38:58;-4.40;99.90
38860;DHT22;24609;48.316;16.174;2022-12-18T02:41:25;-4.40;99.90
38860;DHT22;24609;48.316;16.174;2022-12-18T02:44:01;-4.50;99.90
38860;DHT22;24609;48.316;16.174;2022-12-18T02:49:04;-4.50;99.90
38860;DHT22;24609;48.316;16.174;2022-12-18T02:51:48;-4.50;99.90
38860;DHT22;24609;48.316;16.174;2022-12-18T02:54:36;-4.50;99.90
38860;DHT22;24609;48.316;16.174;2022-12-18T02:57:15;-4.60;99.90
38860;DHT22;24609;48.316;16.174;2022-12-18T03:00:25;-4.70;99.90
38860;DHT22;24609;48.316;16.174;2022-12-18T03:02:51;-4.70;99.90
38860;DHT22;24609;48.316;16.174;2022-12-18T03:05:24;-4.70;99.90
38860;DHT22;24609;48.316;16.174;2022-12-18T03:08:00;-4.70;99.90
38860;DHT22;24609;48.316;16.174;2022-12-18T03:10:32;-4.80;99.90
38860;DHT22;24609;48.316;16.174;2022-12-18T03:13:13;-4.70;99.90
38860;DHT22;24609;48.316;16.174;2022-12-18T03:15:50;-4.70;99.90
38860;DHT22;24609;48.316;16.174;2022-12-18T03:19:06;-4.70;99.90
38860;DHT22;24609;48.316;16.174;2022-12-18T03:21:12;-4.70;99.90
38860;DHT22;24609;48.316;16.174;2022-12-18T03:23:42;-4.70;99.90
38860;DHT22;24609;48.316;16.174;2022-12-18T03:26:12;-4.90;99.90
38860;DHT22;24609;48.316;16.174;2022-12-18T03:28:43;-5.00;99.90
38860;DHT22;24609;48.316;16.174;2022-12-18T03:31:12;-5.10;99.90
38860;DHT22;24609;48.316;16.174;2022-12-18T03:34:03;-5.00;99.90
38860;DHT22;24609;48.316;16.174;2022-12-18T03:36:30;-4.90;99.90
38860;DHT22;24609;48.316;16.174;2022-12-18T03:38:57;-4.90;99.90
38860;DHT22;24609;48.316;16.174;2022-12-18T03:41:42;-5.00;99.90
38860;DHT22;24609;48.316;16.174;2022-12-18T03:44:25;-5.20;99.90
38860;DHT22;24609;48.316;16.174;2022-12-18T03:52:40;-5.30;99.90
38860;DHT22;24609;48.316;16.174;2022-12-18T03:55:09;-5.30;99.90
38860;DHT22;24609;48.316;16.174;2022-12-18T03:57:35;-5.40;99.90
38860;DHT22;24609;48.316;16.174;2022-12-18T04:00:13;-5.40;99.90
38860;DHT22;24609;48.316;16.174;2022-12-18T04:02:44;-5.50;99.90
38860;DHT22;24609;48.316;16.174;2022-12-18T04:05:12;-5.50;99.90
38860;DHT22;24609;48.316;16.174;2022-12-18T04:07:38;-5.50;99.90
38860;DHT22;24609;48.316;16.174;2022-12-18T04:10:07;-5.50;99.90
38860;DHT22;24609;48.316;16.174;2022-12-18T04:12:34;-5.70;99.90
38860;DHT22;24609;48.316;16.174;2022-12-18T04:14:59;-5.80;99.90
38860;DHT22;24609;48.316;16.174;2022-12-18T04:17:25;-5.90;99.90
38860;DHT22;24609;48.316;16.174;2022-12-18T04:19:51;-6.00;99.90
38860;DHT22;24609;48.316;16.174;2022-12-18T04:22:16;-6.00;99.90
38860;DHT22;24609;48.316;16.174;2022-12-18T04:24:42;-5.90;99.90
38860;DHT22;24609;48.316;16.174;2022-12-18T04:27:08;-5.80;99.90
38860;DHT22;24609;48.316;16.174;2022-12-18T04:29:34;-5.80;99.90
38860;DHT22;24609;48.316;16.174;2022-12-18T04:32:00;-5.90;99.90
38860;DHT22;24609;48.316;16.174;2022-12-18T04:34:25;-6.00;99.90
38860;DHT22;24609;48.316;16.174;2022-12-18T04:36:51;-6.00;99.90
38860;DHT22;24609;48.316;16.174;2022-12-18T04:39:17;-6.10;99.90
38860;DHT22;24609;48.316;16.174;2022-12-18T04:41:42;-6.10;99.90
38860;DHT22;24609;48.316;16.174;2022-12-18T04:44:08;-6.20;99.90
38860;DHT22;24609;48.316;16.174;2022-12-18T04:46:33;-6.30;99.90
38860;DHT22;24609;48.316;16.174;2022-12-18T04:48:59;-6.40;99.90
38860;DHT22;24609;48.316;16.174;2022-12-18T04:51:25;-6.40;99.90
38860;DHT22;24609;48.316;16.174;2022-12-18T04:53:51;-6.40;99.90
38860;DHT22;24609;48.316;16.174;2022-12-18T04:56:16;-6.40;99.90
38860;DHT22;24609;48.316;16.174;2022-12-18T04:58:43;-6.40;99.90
38860;DHT22;24609;48.316;16.174;2022-12-18T05:01:10;-6.40;99.90
38860;DHT22;24609;48.316;16.174;2022-12-18T05:03:37;-6.40;99.90
38860;DHT22;24609;48.316;16.174;2022-12-18T05:06:03;-6.40;99.90
38860;DHT22;24609;48.316;16.174;2022-12-18T05:08:29;-6.40;99.90
38860;DHT22;24609;48.316;16.174;2022-12-18T05:11:05;-6.40;99.90
38860;DHT22;24609;48.316;16.174;2022-12-18T05:13:31;-6.30;99.90
38860;DHT22;24609;48.316;16.174;2022-12-18T05:15:58;-6.30;99.90
38860;DHT22;24609;48.316;16.174;2022-12-18T05:18:24;-6.20;99.90
38860;DHT22;24609;48.316;16.174;2022-12-18T05:20:50;-6.30;99.90
38860;DHT22;24609;48.316;16.174;2022-12-18T05:23:16;-6.40;99.90
38860;DHT22;24609;48.316;16.174;2022-12-18T05:25:42;-6.30;99.90
38860;DHT22;24609;48.316;16.174;2022-12-18T05:28:08;-6.40;99.90
38860;DHT22;24609;48.316;16.174;2022-12-18T05:30:34;-6.50;99.90
38860;DHT22;24609;48.316;16.174;2022-12-18T05:33:00;-6.40;99.90
38860;DHT22;24609;48.316;16.174;2022-12-18T05:35:25;-6.40;99.90
38860;DHT22;24609;48.316;16.174;2022-12-18T05:37:51;-6.40;99.90
38860;DHT22;24609;48.316;16.174;2022-12-18T05:40:16;-6.50;99.90
38860;DHT22;24609;48.316;16.174;2022-12-18T05:42:42;-6.60;99.90
38860;DHT22;24609;48.316;16.174;2022-12-18T05:45:08;-6.60;99.90
38860;DHT22;24609;48.316;16.174;2022-12-18T05:47:34;-6.60;99.90
38860;DHT22;24609;48.316;16.174;2022-12-18T05:49:59;-6.70;99.90
38860;DHT22;24609;48.316;16.174;2022-12-18T05:52:25;-6.80;99.90
38860;DHT22;24609;48.316;16.174;2022-12-18T05:54:51;-6.80;99.90
38860;DHT22;24609;48.316;16.174;2022-12-18T05:57:17;-6.80;99.90
38860;DHT22;24609;48.316;16.174;2022-12-18T05:59:42;-6.90;99.90
38860;DHT22;24609;48.316;16.174;2022-12-18T06:02:08;-6.90;99.90
38860;DHT22;24609;48.316;16.174;2022-12-18T06:04:34;-6.90;99.90
38860;DHT22;24609;48.316;16.174;2022-12-18T06:06:59;-7.00;99.90
38860;DHT22;24609;48.316;16.174;2022-12-18T06:09:25;-7.00;99.90
38860;DHT22;24609;48.316;16.174;2022-12-18T06:11:51;-6.90;99.90
38860;DHT22;24609;48.316;16.174;2022-12-18T06:14:17;-7.00;99.90
38860;DHT22;24609;48.316;16.174;2022-12-18T06:16:43;-7.00;99.90
38860;DHT22;24609;48.316;16.174;2022-12-18T06:19:14;-6.90;99.90
38860;DHT22;24609;48.316;16.174;2022-12-18T06:21:40;-6.90;99.90
38860;DHT22;24609;48.316;16.174;2022-12-18T06:24:06;-7.00;99.90
38860;DHT22;24609;48.316;16.174;2022-12-18T06:26:32;-7.00;99.90
38860;DHT22;24609;48.316;16.174;2022-12-18T06:28:58;-7.10;99.90
38860;DHT22;24609;48.316;16.174;2022-12-18T06:31:24;-7.20;99.90
38860;DHT22;24609;48.316;16.174;2022-12-18T06:33:50;-7.20;99.90
38860;DHT22;24609;48.316;16.174;2022-12-18T06:36:15;-7.20;99.90
38860;DHT22;24609;48.316;16.174;2022-12-18T06:38:43;-7.20;99.90
38860;DHT22;24609;48.316;16.174;2022-12-18T06:41:10;-7.10;99.90
38860;DHT22;24609;48.316;16.174;2022-12-18T06:43:37;-7.10;99.90
38860;DHT22;24609;48.316;16.174;2022-12-18T06:46:03;-7.00;99.90
38860;DHT22;24609;48.316;16.174;2022-12-18T06:48:29;-7.00;99.90
38860;DHT22;24609;48.316;16.174;2022-12-18T06:50:55;-7.00;99.90
38860;DHT22;24609;48.316;16.174;2022-12-18T06:53:21;-7.00;99.90
38860;DHT22;24609;48.316;16.174;2022-12-18T06:55:47;-7.00;99.90
38860;DHT22;24609;48.316;16.174;2022-12-18T06:58:13;-7.00;99.90
38860;DHT22;24609;48.316;16.174;2022-12-18T07:00:38;-6.90;99.90
38860;DHT22;24609;48.316;16.174;2022-12-18T07:03:04;-6.90;99.90
38860;DHT22;24609;48.316;16.174;2022-12-18T07:05:30;-6.90;99.90
38860;DHT22;24609;48.316;16.174;2022-12-18T07:07:55;-6.80;99.90
38860;DHT22;24609;48.316;16.174;2022-12-18T07:10:21;-6.80;99.90
38860;DHT22;24609;48.316;16.174;2022-12-18T07:12:47;-6.80;99.90
38860;DHT22;24609;48.316;16.174;2022-12-18T07:15:12;-6.80;99.90
38860;DHT22;24609;48.316;16.174;2022-12-18T07:17:38;-6.70;99.90
38860;DHT22;24609;48.316;16.174;2022-12-18T07:20:04;-6.70;99.90
38860;DHT22;24609;48.316;16.174;2022-12-18T07:22:30;-6.60;99.90
38860;DHT22;24609;48.316;16.174;2022-12-18T07:24:55;-6.60;99.90
38860;DHT22;24609;48.316;16.174;2022-12-18T07:27:21;-6.50;99.90
38860;DHT22;24609;48.316;16.174;2022-12-18T07:29:47;-6.40;99.90
38860;DHT22;24609;48.316;16.174;2022-12-18T07:32:13;-6.30;99.90
38860;DHT22;24609;48.316;16.174;2022-12-18T07:34:38;-6.30;99.90
38860;DHT22;24609;48.316;16.174;2022-12-18T07:37:04;-6.20;99.90
38860;DHT22;24609;48.316;16.174;2022-12-18T07:39:30;-6.20;99.90
38860;DHT22;24609;48.316;16.174;2022-12-18T07:41:56;-6.20;99.90
38860;DHT22;24609;48.316;16.174;2022-12-18T07:44:40;-6.20;99.90
38860;DHT22;24609;48.316;16.174;2022-12-18T07:47:06;-6.10;99.90
38860;DHT22;24609;48.316;16.174;2022-12-18T07:49:31;-5.80;99.90
38860;DHT22;24609;48.316;16.174;2022-12-18T07:51:57;-5.50;99.90
38860;DHT22;24609;48.316;16.174;2022-12-18T07:54:24;-5.10;99.90
38860;DHT22;24609;48.316;16.174;2022-12-18T07:56:50;-4.70;99.90
38860;DHT22;24609;48.316;16.174;2022-12-18T07:59:17;-4.20;99.90
38860;DHT22;24609;48.316;16.174;2022-12-18T08:01:43;-3.50;99.90
38860;DHT22;24609;48.316;16.174;2022-12-18T08:04:09;-3.00;1.00
38860;DHT22;24609;48.316;16.174;2022-12-18T08:06:35;-2.60;1.00
38860;DHT22;24609;48.316;16.174;2022-12-18T08:09:01;-2.50;1.00
38860;DHT22;24609;48.316;16.174;2022-12-18T08:11:28;-2.20;1.00
38860;DHT22;24609;48.316;16.174;2022-12-18T08:13:54;-2.10;1.00
38860;DHT22;24609;48.316;16.174;2022-12-18T08:16:21;-1.90;99.90
38860;DHT22;24609;48.316;16.174;2022-12-18T08:18:47;-1.70;2.50
38860;DHT22;24609;48.316;16.174;2022-12-18T08:21:17;-1.60;99.90
38860;DHT22;24609;48.316;16.174;2022-12-18T08:23:44;-1.40;1.00
38860;DHT22;24609;48.316;16.174;2022-12-18T08:26:13;-1.40;99.90
38860;DHT22;24609;48.316;16.174;2022-12-18T08:28:39;-1.20;1.00
38860;DHT22;24609;48.316;16.174;2022-12-18T08:31:05;-1.00;1.00
38860;DHT22;24609;48.316;16.174;2022-12-18T08:33:31;-0.50;1.00
38860;DHT22;24609;48.316;16.174;2022-12-18T08:36:01;-0.20;99.90
38860;DHT22;24609;48.316;16.174;2022-12-18T08:38:27;0.20;1.00
38860;DHT22;24609;48.316;16.174;2022-12-18T08:41:04;0.40;99.90
38860;DHT22;24609;48.316;16.174;2022-12-18T08:43:30;0.60;99.90
38860;DHT22;24609;48.316;16.174;2022-12-18T08:46:14;0.80;99.90
38860;DHT22;24609;48.316;16.174;2022-12-18T08:48:40;1.40;48.80
38860;DHT22;24609;48.316;16.174;2022-12-18T08:51:05;1.30;1.00
38860;DHT22;24609;48.316;16.174;2022-12-18T08:53:32;1.20;1.00
38860;DHT22;24609;48.316;16.174;2022-12-18T08:55:57;0.40;65.80
38860;DHT22;24609;48.316;16.174;2022-12-18T08:58:23;1.20;34.60
38860;DHT22;24609;48.316;16.174;2022-12-18T09:00:49;0.70;1.00
38860;DHT22;24609;48.316;16.174;2022-12-18T09:03:16;0.50;14.20
38860;DHT22;24609;48.316;16.174;2022-12-18T09:05:43;1.50;63.50
38860;DHT22;24609;48.316;16.174;2022-12-18T09:08:09;2.70;1.00
38860;DHT22;24609;48.316;16.174;2022-12-18T09:10:42;4.00;99.90
38860;DHT22;24609;48.316;16.174;2022-12-18T09:13:08;4.10;99.90
38860;DHT22;24609;48.316;16.174;2022-12-18T09:15:34;3.10;99.90
38860;DHT22;24609;48.316;16.174;2022-12-18T09:18:05;0.90;99.90
38860;DHT22;24609;48.316;16.174;2022-12-18T09:20:30;-0.70;88.00
38860;DHT22;24609;48.316;16.174;2022-12-18T09:22:56;-1.40;99.90
38860;DHT22;24609;48.316;16.174;2022-12-18T09:25:22;-1.50;99.90
38860;DHT22;24609;48.316;16.174;2022-12-18T09:27:47;-1.40;99.90
38860;DHT22;24609;48.316;16.174;2022-12-18T09:30:13;-1.00;1.00
38860;DHT22;24609;48.316;16.174;2022-12-18T09:32:39;-0.80;99.90
38860;DHT22;24609;48.316;16.174;2022-12-18T09:35:05;-0.80;99.90
38860;DHT22;24609;48.316;16.174;2022-12-18T09:37:30;-1.00;99.90
38860;DHT22;24609;48.316;16.174;2022-12-18T09:39:56;-0.90;1.00
38860;DHT22;24609;48.316;16.174;2022-12-18T09:42:22;-0.90;1.00
38860;DHT22;24609;48.316;16.174;2022-12-18T09:44:53;-0.90;43.40
38860;DHT22;24609;48.316;16.174;2022-12-18T09:47:27;-0.80;99.90
38860;DHT22;24609;48.316;16.174;2022-12-18T09:50:01;-0.90;99.90
38860;DHT22;24609;48.316;16.174;2022-12-18T09:52:43;-0.80;22.30
38860;DHT22;24609;48.316;16.174;2022-12-18T09:57:56;-0.80;99.90
38860;DHT22;24609;48.316;16.174;2022-12-18T10:00:26;-0.80;96.50
38860;DHT22;24609;48.316;16.174;2022-12-18T10:02:59;-0.70;99.90
38860;DHT22;24609;48.316;16.174;2022-12-18T10:05:34;-0.80;99.90
38860;DHT22;24609;48.316;16.174;2022-12-18T10:08:07;-0.70;99.90
38860;DHT22;24609;48.316;16.174;2022-12-18T10:10:47;-0.50;1.00
38860;DHT22;24609;48.316;16.174;2022-12-18T10:13:33;-0.30;1.00
38860;DHT22;24609;48.316;16.174;2022-12-18T10:16:09;-0.50;1.00
38860;DHT22;24609;48.316;16.174;2022-12-18T10:21:23;-0.60;99.90
38860;DHT22;24609;48.316;16.174;2022-12-18T10:27:29;-0.80;99.90
38860;DHT22;24609;48.316;16.174;2022-12-18T10:29:55;-1.10;34.70
38860;DHT22;24609;48.316;16.174;2022-12-18T10:32:29;-1.10;99.90
38860;DHT22;24609;48.316;16.174;2022-12-18T10:34:57;-1.20;99.90
38860;DHT22;24609;48.316;16.174;2022-12-18T10:37:25;-1.30;99.90
38860;DHT22;24609;48.316;16.174;2022-12-18T10:40:13;-1.20;99.90
38860;DHT22;24609;48.316;16.174;2022-12-18T10:42:39;-1.20;1.00
38860;DHT22;24609;48.316;16.174;2022-12-18T10:45:12;-1.30;99.90
38860;DHT22;24609;48.316;16.174;2022-12-18T10:47:46;-1.20;99.90
38860;DHT22;24609;48.316;16.174;2022-12-18T10:50:33;-1.20;99.90
38860;DHT22;24609;48.316;16.174;2022-12-18T10:53:01;-1.10;99.90
38860;DHT22;24609;48.316;16.174;2022-12-18T10:55:36;-1.10;99.90
38860;DHT22;24609;48.316;16.174;2022-12-18T11:01:15;-0.90;1.00
38860;DHT22;24609;48.316;16.174;2022-12-18T11:03:44;-1.10;1.00
38860;DHT22;24609;48.316;16.174;2022-12-18T11:06:18;-1.10;99.90
38860;DHT22;24609;48.316;16.174;2022-12-18T11:09:04;-1.20;99.90
38860;DHT22;24609;48.316;16.174;2022-12-18T11:11:32;-1.10;1.00
38860;DHT22;24609;48.316;16.174;2022-12-18T11:14:02;-0.90;1.00
38860;DHT22;24609;48.316;16.174;2022-12-18T11:16:34;-1.00;99.90
38860;DHT22;24609;48.316;16.174;2022-12-18T11:21:41;-0.60;1.00
38860;DHT22;24609;48.316;16.174;2022-12-18T11:24:27;-0.70;1.00
38860;DHT22;24609;48.316;16.174;2022-12-18T11:26:54;-0.80;1.00
38860;DHT22;24609;48.316;16.174;2022-12-18T11:29:27;-0.60;66.90
38860;DHT22;24609;48.316;16.174;2022-12-18T11:34:45;-0.60;1.00
38860;DHT22;24609;48.316;16.174;2022-12-18T11:37:13;-0.80;1.00
38860;DHT22;24609;48.316;16.174;2022-12-18T11:39:43;-0.90;1.00
38860;DHT22;24609;48.316;16.174;2022-12-18T11:42:17;-0.80;81.20
38860;DHT22;24609;48.316;16.174;2022-12-18T11:44:50;-1.00;99.90
38860;DHT22;24609;48.316;16.174;2022-12-18T11:49:52;-1.10;1.00
38860;DHT22;24609;48.316;16.174;2022-12-18T11:52:28;-1.20;1.00
38860;DHT22;24609;48.316;16.174;2022-12-18T11:54:59;-1.20;8.70
38860;DHT22;24609;48.316;16.174;2022-12-18T11:57:51;-1.30;1.00
38860;DHT22;24609;48.316;16.174;2022-12-18T12:00:22;-1.30;99.90
38860;DHT22;24609;48.316;16.174;2022-12-18T12:05:58;-1.00;1.00
38860;DHT22;24609;48.316;16.174;2022-12-18T12:08:54;-1.00;99.90
38860;DHT22;24609;48.316;16.174;2022-12-18T12:11:53;-1.20;1.00
38860;DHT22;24609;48.316;16.174;2022-12-18T12:17:54;-1.30;42.50
38860;DHT22;24609;48.316;16.174;2022-12-18T12:20:39;-1.50;1.00
38860;DHT22;24609;48.316;16.174;2022-12-18T12:23:36;-1.40;99.90
38860;DHT22;24609;48.316;16.174;2022-12-18T12:26:10;-1.60;1.00
38860;DHT22;24609;48.316;16.174;2022-12-18T12:28:54;-1.60;1.00
38860;DHT22;24609;48.316;16.174;2022-12-18T12:34:25;-1.60;83.90
38860;DHT22;24609;48.316;16.174;2022-12-18T12:39:38;-1.60;99.90
38860;DHT22;24609;48.316;16.174;2022-12-18T12:42:42;-1.50;99.90
38860;DHT22;24609;48.316;16.174;2022-12-18T12:51:20;-1.60;99.90
38860;DHT22;24609;48.316;16.174;2022-12-18T12:53:47;-1.60;37.10
38860;DHT22;24609;48.316;16.174;2022-12-18T12:56:15;-1.70;29.90
38860;DHT22;24609;48.316;16.174;2022-12-18T13:04:12;-1.70;25.80
38860;DHT22;24609;48.316;16.174;2022-12-18T13:09:16;-1.70;99.90
38860;DHT22;24609;48.316;16.174;2022-12-18T13:11:43;-1.80;99.90
38860;DHT22;24609;48.316;16.174;2022-12-18T13:14:37;-1.80;1.00
38860;DHT22;24609;48.316;16.174;2022-12-18T13:20:08;-1.70;1.00
38860;DHT22;24609;48.316;16.174;2022-12-18T13:22:45;-1.60;1.00
38860;DHT22;24609;48.316;16.174;2022-12-18T13:25:28;-1.80;1.00
38860;DHT22;24609;48.316;16.174;2022-12-18T13:43:31;-2.00;99.90
38860;DHT22;24609;48.316;16.174;2022-12-18T13:46:02;-2.10;99.90
38860;DHT22;24609;48.316;16.174;2022-12-18T13:48:31;-2.10;99.90
38860;DHT22;24609;48.316;16.174;2022-12-18T13:51:07;-2.10;99.90
38860;DHT22;24609;48.316;16.174;2022-12-18T13:53:42;-2.20;99.90
38860;DHT22;24609;48.316;16.174;2022-12-18T13:56:08;-2.20;99.90
38860;DHT22;24609;48.316;16.174;2022-12-18T13:58:34;-2.20;99.90
38860;DHT22;24609;48.316;16.174;2022-12-18T14:01:00;-2.10;99.90
38860;DHT22;24609;48.316;16.174;2022-12-18T14:03:29;-2.10;99.90
38860;DHT22;24609;48.316;16.174;2022-12-18T14:06:02;-2.10;99.90
38860;DHT22;24609;48.316;16.174;2022-12-18T14:08:36;-2.10;99.90
38860;DHT22;24609;48.316;16.174;2022-12-18T14:11:04;-2.10;99.90
38860;DHT22;24609;48.316;16.174;2022-12-18T14:13:39;-2.10;99.90
38860;DHT22;24609;48.316;16.174;2022-12-18T14:16:07;-2.10;1.00
38860;DHT22;24609;48.316;16.174;2022-12-18T14:18:46;-2.10;1.00
38860;DHT22;24609;48.316;16.174;2022-12-18T14:21:26;-2.10;99.90
38860;DHT22;24609;48.316;16.174;2022-12-18T14:24:19;-2.10;1.00
38860;DHT22;24609;48.316;16.174;2022-12-18T14:26:46;-2.20;99.90
38860;DHT22;24609;48.316;16.174;2022-12-18T14:29:29;-2.20;1.00
38860;DHT22;24609;48.316;16.174;2022-12-18T14:32:14;-2.20;1.00
38860;DHT22;24609;48.316;16.174;2022-12-18T14:34:43;-2.30;1.00
38860;DHT22;24609;48.316;16.174;2022-12-18T14:37:14;-2.30;1.00
38860;DHT22;24609;48.316;16.174;2022-12-18T14:39:51;-2.20;1.00
38860;DHT22;24609;48.316;16.174;2022-12-18T14:42:17;-2.20;1.00
38860;DHT22;24609;48.316;16.174;2022-12-18T14:44:42;-2.20;1.00
38860;DHT22;24609;48.316;16.174;2022-12-18T14:47:14;-2.30;1.00
38860;DHT22;24609;48.316;16.174;2022-12-18T14:49:41;-2.30;1.00
38860;DHT22;24609;48.316;16.174;2022-12-18T14:52:26;-2.30;1.00
38860;DHT22;24609;48.316;16.174;2022-12-18T14:54:53;-2.30;1.00
38860;DHT22;24609;48.316;16.174;2022-12-18T14:57:24;-2.30;1.00
38860;DHT22;24609;48.316;16.174;2022-12-18T14:59:50;-2.30;1.00
38860;DHT22;24609;48.316;16.174;2022-12-18T15:02:26;-2.30;1.00
38860;DHT22;24609;48.316;16.174;2022-12-18T15:05:01;-2.30;1.00
38860;DHT22;24609;48.316;16.174;2022-12-18T15:07:43;-2.30;1.00
38860;DHT22;24609;48.316;16.174;2022-12-18T15:10:16;-2.30;1.00
38860;DHT22;24609;48.316;16.174;2022-12-18T15:20:31;-2.30;1.00
38860;DHT22;24609;48.316;16.174;2022-12-18T15:22:57;-2.30;1.00
38860;DHT22;24609;48.316;16.174;2022-12-18T15:25:34;-2.30;1.00
38860;DHT22;24609;48.316;16.174;2022-12-18T15:28:02;-2.30;1.00
38860;DHT22;24609;48.316;16.174;2022-12-18T15:30:28;-2.30;1.00
38860;DHT22;24609;48.316;16.174;2022-12-18T15:33:22;-2.20;1.00
38860;DHT22;24609;48.316;16.174;2022-12-18T15:35:59;-2.20;1.00
38860;DHT22;24609;48.316;16.174;2022-12-18T15:38:25;-2.20;1.00
38860;DHT22;24609;48.316;16.174;2022-12-18T15:40:52;-2.20;1.00
38860;DHT22;24609;48.316;16.174;2022-12-18T15:43:21;-2.20;1.00
38860;DHT22;24609;48.316;16.174;2022-12-18T15:46:09;-2.10;1.00
38860;DHT22;24609;48.316;16.174;2022-12-18T15:48:44;-2.10;1.00
38860;DHT22;24609;48.316;16.174;2022-12-18T15:51:28;-2.10;1.00
38860;DHT22;24609;48.316;16.174;2022-12-18T15:53:56;-2.10;1.00
38860;DHT22;24609;48.316;16.174;2022-12-18T15:56:24;-2.10;1.00
38860;DHT22;24609;48.316;16.174;2022-12-18T15:59:14;-2.10;1.00
38860;DHT22;24609;48.316;16.174;2022-12-18T16:01:40;-2.10;1.00
38860;DHT22;24609;48.316;16.174;2022-12-18T16:04:08;-2.10;1.00
38860;DHT22;24609;48.316;16.174;2022-12-18T16:06:34;-2.10;1.00
38860;DHT22;24609;48.316;16.174;2022-12-18T16:09:00;-2.10;1.00
38860;DHT22;24609;48.316;16.174;2022-12-18T16:11:30;-2.10;1.00
38860;DHT22;24609;48.316;16.174;2022-12-18T16:14:26;-2.10;1.00
38860;DHT22;24609;48.316;16.174;2022-12-18T16:17:04;-2.10;1.00
38860;DHT22;24609;48.316;16.174;2022-12-18T16:19:30;-2.10;1.00
38860;DHT22;24609;48.316;16.174;2022-12-18T16:21:57;-2.10;1.00
38860;DHT22;24609;48.316;16.174;2022-12-18T16:24:26;-2.10;1.00
38860;DHT22;24609;48.316;16.174;2022-12-18T16:26:53;-2.10;1.00
38860;DHT22;24609;48.316;16.174;2022-12-18T16:29:20;-2.10;1.00
38860;DHT22;24609;48.316;16.174;2022-12-18T16:31:50;-2.10;1.00
38860;DHT22;24609;48.316;16.174;2022-12-18T16:34:20;-2.10;1.00
38860;DHT22;24609;48.316;16.174;2022-12-18T16:36:49;-2.10;1.00
38860;DHT22;24609;48.316;16.174;2022-12-18T16:39:16;-2.10;1.00
38860;DHT22;24609;48.316;16.174;2022-12-18T16:41:41;-2.10;1.00
38860;DHT22;24609;48.316;16.174;2022-12-18T16:44:07;-2.10;1.00
38860;DHT22;24609;48.316;16.174;2022-12-18T16:46:33;-2.10;1.00
38860;DHT22;24609;48.316;16.174;2022-12-18T16:49:00;-2.20;1.00
38860;DHT22;24609;48.316;16.174;2022-12-18T16:51:27;-2.10;1.00
38860;DHT22;24609;48.316;16.174;2022-12-18T16:53:54;-2.10;1.00
38860;DHT22;24609;48.316;16.174;2022-12-18T16:56:20;-2.10;1.00
38860;DHT22;24609;48.316;16.174;2022-12-18T16:58:57;-2.10;1.00
38860;DHT22;24609;48.316;16.174;2022-12-18T17:01:24;-2.00;1.00
38860;DHT22;24609;48.316;16.174;2022-12-18T17:03:55;-2.10;1.00
38860;DHT22;24609;48.316;16.174;2022-12-18T17:06:21;-2.00;1.00
38860;DHT22;24609;48.316;16.174;2022-12-18T17:08:48;-2.10;1.00
38860;DHT22;24609;48.316;16.174;2022-12-18T17:11:19;-2.00;1.00
38860;DHT22;24609;48.316;16.174;2022-12-18T17:13:46;-2.00;1.00
38860;DHT22;24609;48.316;16.174;2022-12-18T17:16:13;-2.00;1.00